Rucker, Missouri
Current Conditions -  °F | °C
As of 10:55 AM on Saturday 25 Oct 2014 (Local Time) from KVER Reporting Station
Clear Clear  
Wind Chill: 69°   Ceiling: Unl
Heat Index: 69°   Visibility: 10mi
Dew Point: 64°   Wind: 3mph
Humidity: 84%   Direction: 350°N
Pressure: 30.08"   Gusts: NA
Location:  39.2946°N, 92.3427°W
Report Text: KVER 251555Z AUTO 35003KT 10SM CLR 20/18 A3008 RMK AO2 T02040177
Loading
Personal Weather Stations






























Interactive Weather Map
Tropical Storm Tracking
New forecast layout! Learn more

10-Day Weather Forecast

Advertisements
Track Severe Weather on mobile